Aérodrome :
LOGIN :

S'inscrire | Disclaimer

   EN    FR    IT 

 










Légende :    VFR   VFR Marginal   IFR   IFR Intensif   IFR Très Intensif
Visi : 
Plafond : 
>= 8 km
>= 3000ft
5 à 8 km
1000 à 3000 ft
1500m à 5 km
500 à 1000 ft
800 à 1500m
200 à 500 ft
< 800m
< 200 ft
Symboles :   Orages  Brouillard  Fortes neiges  Fortes précipitations  Vent > 20 kt
SIGMETs :   Divers  Orages  Givrage  Turbulence  Onde Orograph.  Cendres Volcan.







- Altitude de l'aérodrome : 20 ft


EBFN - Koksijde

DERNIER METAR :
  • 221555Z 18017KT 9999 FEW210 12/07 Q1001 BLU BLU

METARs EXPIRÉS :
  • 221525Z 18015KT 9999 FEW210 12/08 Q1001 BLU BLU
  • 221455Z 18014KT 9999 FEW210 13/08 Q1001 BLU BLU
  • 221425Z 19014KT 9999 FEW210 13/08 Q1002 BLU BLU
  • 221355Z 20015KT 9999 FEW210 14/08 Q1002 BLU BLU
  • 221325Z 20015KT 9999 FEW210 14/09 Q1003 BLU BLU
  • 221255Z 21012KT 9999 FEW210 14/09 Q1003 BLU BLU

TAF TAF EBFN
Valide du 22 à 13h jusqu'au 22 à 22h UTC


221141Z 2213/2222 20015G25KT 9999 SCT300
Pas de NOTAMs connus pour ce terrain.



MET'MAP, la Météo Aéronautique d'un coup d'oeil ! - Copyright ORBIFLY Décembre 2007 - Disclaimer

ORBIFLY MET'MAP TEAM :

Programmation & Développement : Alexandra Zaïnal
Conception & Développement : Baudouin d'Aumeries
Co-Programmation & Développement : Marc-Olivier Méhu
Soutien technique & logistique : Manuel Goepfert

Contact : metmap@orbifly.com




SOURCES & CREDITS :

   NOAA